createdAt,value
2023-04-20T00:01:25.052Z,2.92
2023-04-20T00:03:52.570Z,3.17
2023-04-20T00:06:21.750Z,3.63
2023-04-20T00:08:49.071Z,3.40
2023-04-20T00:11:16.292Z,2.78
2023-04-20T00:13:43.435Z,3.22
2023-04-20T00:16:10.704Z,3.17
2023-04-20T00:18:37.787Z,2.75
2023-04-20T00:21:05.838Z,3.10
2023-04-20T00:23:33.046Z,3.15
2023-04-20T00:26:00.195Z,3.72
2023-04-20T00:28:27.329Z,3.90
2023-04-20T00:30:54.452Z,3.47
2023-04-20T00:33:21.571Z,3.17
2023-04-20T00:35:48.927Z,2.83
2023-04-20T00:38:16.417Z,3.30
2023-04-20T00:40:44.548Z,3.78
2023-04-20T00:43:13.263Z,3.03
2023-04-20T00:45:40.689Z,2.80
2023-04-20T00:48:07.892Z,3.55
2023-04-20T00:50:35.938Z,3.75
2023-04-20T00:53:03.261Z,3.75
2023-04-20T00:55:31.186Z,3.60
2023-04-20T00:57:58.936Z,3.70
2023-04-20T01:00:27.389Z,3.70
2023-04-20T01:02:54.796Z,4.00
2023-04-20T01:05:22.172Z,3.85
2023-04-20T01:07:49.640Z,3.50
2023-04-20T01:10:16.844Z,4.28
2023-04-20T01:12:44.685Z,3.67
2023-04-20T01:15:12.319Z,3.53
2023-04-20T01:17:40.056Z,4.18
2023-04-20T01:20:09.177Z,3.75
2023-04-20T01:22:51.300Z,3.95
2023-04-20T01:25:18.617Z,3.92
2023-04-20T01:27:46.475Z,3.78
2023-04-20T01:30:13.838Z,3.47
2023-04-20T01:32:41.343Z,3.65
2023-04-20T01:35:09.192Z,2.85
2023-04-20T01:37:39.778Z,4.30
2023-04-20T01:40:10.153Z,3.47
2023-04-20T01:42:37.929Z,3.45
2023-04-20T01:45:06.498Z,3.25
2023-04-20T01:47:34.365Z,2.75
2023-04-20T01:50:01.560Z,3.58
2023-04-20T01:52:28.644Z,2.78
2023-04-20T01:54:55.833Z,3.30
2023-04-20T01:57:25.213Z,3.53
2023-04-20T01:59:52.353Z,3.70
2023-04-20T02:02:19.550Z,3.25
2023-04-20T02:04:46.847Z,3.65
2023-04-20T02:07:13.989Z,3.55
2023-04-20T02:09:41.074Z,3.25
2023-04-20T02:12:08.164Z,3.67
2023-04-20T02:14:35.313Z,3.70
2023-04-20T02:17:02.476Z,3.95
2023-04-20T02:19:29.648Z,4.15
2023-04-20T02:21:56.904Z,3.40
2023-04-20T02:24:24.073Z,3.80
2023-04-20T02:26:51.330Z,3.80
2023-04-20T02:29:18.665Z,4.18
2023-04-20T02:31:46.017Z,3.60
2023-04-20T02:34:16.725Z,3.85
2023-04-20T02:36:43.871Z,5.65
2023-04-20T02:39:13.277Z,6.15
2023-04-20T02:41:40.702Z,6.30
2023-04-20T02:44:07.852Z,6.00
2023-04-20T02:46:37.406Z,7.10
2023-04-20T02:49:05.152Z,6.35
2023-04-20T02:51:37.016Z,7.05
2023-04-20T02:54:04.574Z,7.00
2023-04-20T02:56:32.344Z,6.97
2023-04-20T02:59:04.447Z,7.10
2023-04-20T03:01:43.393Z,7.15
2023-04-20T03:04:15.699Z,7.45
2023-04-20T03:07:09.511Z,7.55
2023-04-20T03:09:38.972Z,7.50
2023-04-20T03:12:23.143Z,7.43
2023-04-20T03:15:11.280Z,8.45
2023-04-20T03:17:50.817Z,7.05
2023-04-20T03:20:18.238Z,7.97
2023-04-20T03:22:45.492Z,8.68
2023-04-20T03:25:12.668Z,8.68
2023-04-20T03:27:51.318Z,8.27
2023-04-20T03:30:19.883Z,9.35
2023-04-20T03:32:52.634Z,9.13
2023-04-20T03:35:20.962Z,9.25
2023-04-20T03:37:48.450Z,8.98
2023-04-20T03:40:15.724Z,9.07
2023-04-20T03:42:42.859Z,9.20
2023-04-20T03:45:10.556Z,9.52
2023-04-20T03:47:37.808Z,9.15
2023-04-20T03:50:06.434Z,9.80
2023-04-20T03:52:33.555Z,8.93
2023-04-20T03:55:04.543Z,8.65
2023-04-20T03:57:33.865Z,8.88
2023-04-20T04:00:03.692Z,9.45
2023-04-20T04:02:45.864Z,8.85
2023-04-20T04:05:15.885Z,8.98
2023-04-20T04:07:43.388Z,9.27
2023-04-20T04:10:11.989Z,9.20
2023-04-20T04:12:39.531Z,9.10
2023-04-20T04:15:08.046Z,10.63
2023-04-20T04:17:40.976Z,8.75
2023-04-20T04:20:09.191Z,8.85
2023-04-20T04:22:37.161Z,9.63
2023-04-20T04:25:29.724Z,8.88
2023-04-20T04:27:57.543Z,8.80
2023-04-20T04:30:26.446Z,10.60
2023-04-20T04:32:54.370Z,9.63
2023-04-20T04:35:22.200Z,9.55
2023-04-20T04:37:49.745Z,9.27
2023-04-20T04:40:18.235Z,10.10
2023-04-20T04:42:48.587Z,10.18
2023-04-20T04:45:16.506Z,9.20
2023-04-20T04:47:44.680Z,9.77
2023-04-20T04:50:12.915Z,9.43
2023-04-20T04:52:40.309Z,8.63
2023-04-20T04:55:09.590Z,7.95
2023-04-20T04:57:38.491Z,6.78
2023-04-20T05:00:11.529Z,6.50
2023-04-20T05:02:38.956Z,6.43
2023-04-20T05:05:09.414Z,5.25
2023-04-20T05:07:38.279Z,5.68
2023-04-20T05:10:06.945Z,5.88
2023-04-20T05:12:34.060Z,5.75
2023-04-20T05:15:01.210Z,6.72
2023-04-20T05:17:28.395Z,5.63
2023-04-20T05:19:55.635Z,5.60
2023-04-20T05:22:22.793Z,7.10
2023-04-20T05:24:50.148Z,6.25
2023-04-20T05:27:17.250Z,6.28
2023-04-20T05:29:44.323Z,6.55
2023-04-20T05:32:11.462Z,6.85
2023-04-20T05:34:38.557Z,7.38
2023-04-20T05:37:06.170Z,8.82
2023-04-20T05:39:33.322Z,9.02
2023-04-20T05:42:00.480Z,8.98
2023-04-20T05:44:27.650Z,9.82
2023-04-20T05:46:55.050Z,9.20
2023-04-20T05:49:22.294Z,7.78
2023-04-20T05:51:49.408Z,7.40
2023-04-20T05:54:16.923Z,6.97
2023-04-20T05:56:44.094Z,6.80
2023-04-20T05:59:11.272Z,5.82
2023-04-20T06:01:38.435Z,5.63
2023-04-20T06:04:05.954Z,5.72
2023-04-20T06:06:33.185Z,5.80
2023-04-20T06:09:00.352Z,5.25
2023-04-20T06:11:27.513Z,5.60
2023-04-20T06:13:54.609Z,6.57
2023-04-20T06:16:21.780Z,5.57
2023-04-20T06:18:49.236Z,4.60
2023-04-20T06:21:17.419Z,5.18
2023-04-20T06:23:44.697Z,4.70
2023-04-20T06:26:11.885Z,5.35
2023-04-20T06:28:39.167Z,5.50
2023-04-20T06:31:06.725Z,5.32
2023-04-20T06:33:33.996Z,4.70
2023-04-20T06:36:01.092Z,4.50
2023-04-20T06:38:28.252Z,4.68
2023-04-20T06:40:57.428Z,5.53
2023-04-20T06:43:24.544Z,6.18
2023-04-20T06:45:51.647Z,5.85
2023-04-20T06:48:31.390Z,5.97
2023-04-20T06:50:59.901Z,5.15
2023-04-20T06:53:26.992Z,6.00
2023-04-20T06:55:55.542Z,5.95
2023-04-20T06:58:22.766Z,6.45
2023-04-20T07:00:49.839Z,6.22
2023-04-20T07:03:18.906Z,6.93
2023-04-20T07:05:46.712Z,6.30
2023-04-20T07:08:15.892Z,9.18
2023-04-20T07:10:43.400Z,10.50
2023-04-20T07:13:10.716Z,7.85
2023-04-20T07:15:38.142Z,9.60
2023-04-20T07:18:05.567Z,9.90
2023-04-20T07:20:33.215Z,10.02
2023-04-20T07:23:00.390Z,9.13
2023-04-20T07:25:27.844Z,10.00
2023-04-20T07:27:55.132Z,10.05
2023-04-20T07:30:22.441Z,8.93
2023-04-20T07:32:49.683Z,8.48
2023-04-20T07:35:16.793Z,8.38
2023-04-20T07:37:43.995Z,9.00
2023-04-20T07:40:11.310Z,8.02
2023-04-20T07:42:38.451Z,7.72
2023-04-20T07:45:06.841Z,7.07
2023-04-20T07:47:35.277Z,6.85
2023-04-20T07:50:03.603Z,7.00
2023-04-20T07:52:30.896Z,7.18
2023-04-20T07:54:59.265Z,7.05
2023-04-20T07:57:26.802Z,7.82
2023-04-20T07:59:54.160Z,8.98
2023-04-20T08:02:21.405Z,8.52
2023-04-20T08:04:49.931Z,8.13
2023-04-20T08:07:17.884Z,8.13
2023-04-20T08:09:45.096Z,6.43
2023-04-20T08:12:12.252Z,6.85
2023-04-20T08:14:41.281Z,7.25
2023-04-20T08:17:08.641Z,6.93
2023-04-20T08:19:36.240Z,7.10
2023-04-20T08:22:05.293Z,7.55
2023-04-20T08:24:32.531Z,6.93
2023-04-20T08:26:59.974Z,6.95
2023-04-20T08:29:29.479Z,7.25
2023-04-20T08:31:57.378Z,6.60
2023-04-20T08:34:24.797Z,6.45
2023-04-20T08:36:52.020Z,7.35
2023-04-20T08:39:21.853Z,7.20
2023-04-20T08:41:53.598Z,6.68
2023-04-20T08:44:20.975Z,6.85
2023-04-20T08:46:49.032Z,7.50
2023-04-20T08:49:18.247Z,7.28
2023-04-20T08:51:46.847Z,7.20
2023-04-20T08:54:15.013Z,7.43
2023-04-20T08:56:45.141Z,6.32
2023-04-20T08:59:14.648Z,6.15
2023-04-20T09:01:43.016Z,6.30
2023-04-20T09:04:23.159Z,5.47
2023-04-20T09:06:52.717Z,5.63
2023-04-20T09:09:21.417Z,5.82
2023-04-20T09:11:59.315Z,6.10
2023-04-20T09:14:26.469Z,6.32
2023-04-20T09:17:01.861Z,6.28
2023-04-20T09:19:30.486Z,6.05
2023-04-20T09:22:00.341Z,6.13
2023-04-20T09:24:32.996Z,6.70
2023-04-20T09:27:02.421Z,5.82
2023-04-20T09:29:30.257Z,6.15
2023-04-20T09:31:57.532Z,6.20
2023-04-20T09:34:25.743Z,5.80
2023-04-20T09:36:55.464Z,6.47
2023-04-20T09:39:24.561Z,6.20
2023-04-20T09:41:52.507Z,5.05
2023-04-20T09:44:19.882Z,6.57
2023-04-20T09:46:47.232Z,5.93
2023-04-20T09:49:15.299Z,5.90
2023-04-20T09:51:46.799Z,5.53
2023-04-20T09:54:15.908Z,5.47
2023-04-20T09:56:43.540Z,5.05
2023-04-20T09:59:11.872Z,5.93
2023-04-20T10:01:39.072Z,5.07
2023-04-20T10:04:14.722Z,5.05
2023-04-20T10:06:53.987Z,5.95
2023-04-20T10:09:24.537Z,4.95
2023-04-20T10:11:54.604Z,5.93
2023-04-20T10:14:26.203Z,6.40
2023-04-20T10:17:01.366Z,5.72
2023-04-20T10:19:42.694Z,4.70
2023-04-20T10:22:12.296Z,5.15
2023-04-20T10:24:40.137Z,5.25
2023-04-20T10:27:20.720Z,5.70
2023-04-20T10:29:49.249Z,5.18
2023-04-20T10:32:27.424Z,6.10
2023-04-20T10:35:09.800Z,5.18
2023-04-20T10:37:48.146Z,4.55
2023-04-20T10:40:15.481Z,4.78
2023-04-20T10:42:43.968Z,4.95
2023-04-20T10:45:12.229Z,5.18
2023-04-20T10:47:40.823Z,4.78
2023-04-20T10:50:09.329Z,4.70
2023-04-20T10:52:39.739Z,4.97
2023-04-20T10:55:17.557Z,4.75
2023-04-20T10:57:48.373Z,4.78
2023-04-20T11:00:21.739Z,4.35
2023-04-20T11:02:50.439Z,4.68
2023-04-20T11:05:22.112Z,4.30
2023-04-20T11:08:01.207Z,4.85
2023-04-20T11:10:39.739Z,4.18
2023-04-20T11:13:07.424Z,4.97
2023-04-20T11:15:35.271Z,5.03
2023-04-20T11:18:09.458Z,5.47
2023-04-20T11:20:36.816Z,4.60
2023-04-20T11:23:06.167Z,5.20
2023-04-20T11:25:33.454Z,4.40
2023-04-20T11:28:08.862Z,4.43
2023-04-20T11:30:42.713Z,4.35
2023-04-20T11:33:10.938Z,5.53
2023-04-20T11:35:40.659Z,4.78
2023-04-20T11:38:08.390Z,4.78
2023-04-20T11:40:36.308Z,4.88
2023-04-20T11:43:04.619Z,4.82
2023-04-20T11:45:36.205Z,3.95
2023-04-20T11:48:05.108Z,5.32
2023-04-20T11:50:32.241Z,4.43
2023-04-20T11:52:59.348Z,4.53
2023-04-20T11:55:26.387Z,4.82
2023-04-20T11:57:53.494Z,5.03
2023-04-20T12:00:21.767Z,4.47
2023-04-20T12:02:49.237Z,5.13
2023-04-20T12:05:16.937Z,5.05
2023-04-20T12:07:44.678Z,4.75
2023-04-20T12:10:12.314Z,4.82
2023-04-20T12:12:42.106Z,5.32
2023-04-20T12:15:10.056Z,4.68
2023-04-20T12:17:37.176Z,5.15
2023-04-20T12:20:09.633Z,4.55
2023-04-20T12:22:37.634Z,4.15
2023-04-20T12:25:06.511Z,4.50
2023-04-20T12:27:34.044Z,4.50
2023-04-20T12:30:01.559Z,5.18
2023-04-20T12:32:28.913Z,4.60
2023-04-20T12:34:56.482Z,4.15
2023-04-20T12:37:23.620Z,4.65
2023-04-20T12:39:51.100Z,5.00
2023-04-20T12:42:18.283Z,5.45
2023-04-20T12:44:45.392Z,5.22
2023-04-20T12:47:13.653Z,4.75
2023-04-20T12:49:40.918Z,5.00
2023-04-20T12:52:09.036Z,4.40
2023-04-20T12:54:36.410Z,4.95
2023-04-20T12:57:03.708Z,4.82
2023-04-20T12:59:30.812Z,5.28
2023-04-20T13:01:58.049Z,4.35
2023-04-20T13:04:25.399Z,4.38
2023-04-20T13:06:52.922Z,5.00
2023-04-20T13:09:20.230Z,4.32
2023-04-20T13:11:47.343Z,4.30
2023-04-20T13:14:14.485Z,5.53
2023-04-20T13:16:41.731Z,4.72
2023-04-20T13:19:08.961Z,5.07
2023-04-20T13:21:36.083Z,5.22
2023-04-20T13:24:03.369Z,5.45
2023-04-20T13:26:30.649Z,5.35
2023-04-20T13:28:58.423Z,2.78
2023-04-20T13:31:25.633Z,2.25
2023-04-20T13:33:56.026Z,2.10
2023-04-20T13:36:24.474Z,2.33
2023-04-20T13:38:53.363Z,1.55
2023-04-20T13:41:20.498Z,2.22
2023-04-20T13:43:47.637Z,1.88
2023-04-20T13:46:15.861Z,1.98
2023-04-20T13:48:43.064Z,1.92
2023-04-20T13:51:10.215Z,1.98
2023-04-20T13:53:37.448Z,2.33
2023-04-20T13:56:05.254Z,2.22
2023-04-20T13:58:32.320Z,2.58
2023-04-20T14:00:59.446Z,2.83
2023-04-20T14:03:27.179Z,3.00
2023-04-20T14:05:54.604Z,3.10
2023-04-20T14:08:23.300Z,3.10
2023-04-20T14:10:50.392Z,3.53
2023-04-20T14:13:17.571Z,3.80
2023-04-20T14:15:44.856Z,3.50
2023-04-20T14:18:12.421Z,4.20
2023-04-20T14:20:39.604Z,4.25
2023-04-20T14:23:09.266Z,5.00
2023-04-20T14:25:38.078Z,4.68
2023-04-20T14:28:05.259Z,4.53
2023-04-20T14:30:32.351Z,5.45
2023-04-20T14:33:00.672Z,5.68
2023-04-20T14:35:28.413Z,5.07
2023-04-20T14:37:55.654Z,4.65
2023-04-20T14:40:22.823Z,5.40
2023-04-20T14:42:49.942Z,3.88
2023-04-20T14:45:17.144Z,5.45
2023-04-20T14:47:44.349Z,5.53
2023-04-20T14:50:11.729Z,4.63
2023-04-20T14:52:38.796Z,4.88
2023-04-20T14:55:06.231Z,5.20
2023-04-20T14:57:34.080Z,5.80
2023-04-20T15:00:01.192Z,5.13
2023-04-20T15:02:28.617Z,4.78
2023-04-20T15:04:58.342Z,4.75
2023-04-20T15:07:25.724Z,4.93
2023-04-20T15:09:53.122Z,5.10
2023-04-20T15:12:20.941Z,5.78
2023-04-20T15:14:48.031Z,5.75
2023-04-20T15:17:15.243Z,5.43
2023-04-20T15:19:45.936Z,5.68
2023-04-20T15:22:13.584Z,7.85
2023-04-20T15:24:41.167Z,5.20
2023-04-20T15:27:09.082Z,6.22
2023-04-20T15:29:36.263Z,5.75
2023-04-20T15:32:03.758Z,5.82
2023-04-20T15:34:31.172Z,6.65
2023-04-20T15:36:58.315Z,6.53
2023-04-20T15:39:25.548Z,6.70
2023-04-20T15:41:53.081Z,7.00
2023-04-20T15:44:20.459Z,6.03
2023-04-20T15:46:47.765Z,7.30
2023-04-20T15:49:15.184Z,7.30
2023-04-20T15:51:43.261Z,7.78
2023-04-20T15:54:11.892Z,7.55
2023-04-20T15:56:39.047Z,7.60
2023-04-20T15:59:06.262Z,7.22
2023-04-20T16:01:33.615Z,7.82
2023-04-20T16:04:01.301Z,7.32
2023-04-20T16:06:28.610Z,7.18
2023-04-20T16:08:57.225Z,8.48
2023-04-20T16:11:24.590Z,8.13
2023-04-20T16:13:51.713Z,7.55
2023-04-20T16:16:19.012Z,8.40
2023-04-20T16:18:46.228Z,8.35
2023-04-20T16:21:13.857Z,7.30
2023-04-20T16:23:41.097Z,8.05
2023-04-20T16:26:08.226Z,7.55
2023-04-20T16:28:35.466Z,6.80
2023-04-20T16:31:02.720Z,10.15
2023-04-20T16:33:32.016Z,8.43
2023-04-20T16:36:00.366Z,8.85
2023-04-20T16:38:27.575Z,9.38
2023-04-20T16:40:54.705Z,10.02
2023-04-20T16:43:21.805Z,11.10
2023-04-20T16:45:49.240Z,10.60
2023-04-20T16:48:16.369Z,10.95
2023-04-20T16:50:43.705Z,10.60
2023-04-20T16:53:11.100Z,10.95
2023-04-20T16:55:38.304Z,12.63
2023-04-20T16:58:05.630Z,14.20
2023-04-20T17:00:33.840Z,15.07
2023-04-20T17:03:01.334Z,15.82
2023-04-20T17:05:28.864Z,18.02
2023-04-20T17:07:55.986Z,16.13
2023-04-20T17:10:23.272Z,15.90
2023-04-20T17:12:50.810Z,18.23
2023-04-20T17:15:17.932Z,17.15
2023-04-20T17:17:45.054Z,17.65
2023-04-20T17:20:12.513Z,16.55
2023-04-20T17:22:39.702Z,15.27
2023-04-20T17:25:07.906Z,16.15
2023-04-20T17:27:35.316Z,16.88
2023-04-20T17:30:02.675Z,15.55
2023-04-20T17:32:29.902Z,16.23
2023-04-20T17:34:57.360Z,16.50
2023-04-20T17:37:24.512Z,16.52
2023-04-20T17:39:51.640Z,16.95
2023-04-20T17:42:18.780Z,16.38
2023-04-20T17:44:45.919Z,16.80
2023-04-20T17:47:14.869Z,19.42
2023-04-20T17:49:43.240Z,18.00
2023-04-20T17:52:12.553Z,19.05
2023-04-20T17:54:39.705Z,18.17
2023-04-20T17:57:08.792Z,17.80
2023-04-20T17:59:35.909Z,18.08
2023-04-20T18:02:03.782Z,18.75
2023-04-20T18:04:31.290Z,18.33
2023-04-20T18:06:58.505Z,17.00
2023-04-20T18:09:25.648Z,17.58
2023-04-20T18:11:53.111Z,16.77
2023-04-20T18:14:21.120Z,16.67
2023-04-20T18:16:51.843Z,17.45
2023-04-20T18:19:19.162Z,17.75
2023-04-20T18:21:46.785Z,17.25
2023-04-20T18:24:13.914Z,15.77
2023-04-20T18:26:41.022Z,15.27
2023-04-20T18:29:08.269Z,16.35
2023-04-20T18:31:35.477Z,15.93
2023-04-20T18:34:02.721Z,16.20
2023-04-20T18:36:30.066Z,16.30
2023-04-20T18:38:57.403Z,17.02
2023-04-20T18:41:25.683Z,17.42
2023-04-20T18:43:53.858Z,17.92
2023-04-20T18:46:21.201Z,17.75
2023-04-20T18:48:48.417Z,16.95
2023-04-20T18:51:15.559Z,17.98
2023-04-20T18:53:42.783Z,19.08
2023-04-20T18:56:10.368Z,17.73
2023-04-20T18:58:37.574Z,17.55
2023-04-20T19:01:05.146Z,18.80
2023-04-20T19:03:32.465Z,19.05
2023-04-20T19:05:59.712Z,18.15
2023-04-20T19:08:26.835Z,19.33
2023-04-20T19:10:57.317Z,20.27
2023-04-20T19:13:24.710Z,18.48
2023-04-20T19:15:57.520Z,17.70
2023-04-20T19:18:26.584Z,18.75
2023-04-20T19:20:54.463Z,19.63
2023-04-20T19:23:22.152Z,19.90
2023-04-20T19:25:49.358Z,19.27
2023-04-20T19:28:16.553Z,20.58
2023-04-20T19:30:44.115Z,19.67
2023-04-20T19:33:11.281Z,18.17
2023-04-20T19:35:38.468Z,19.30
2023-04-20T19:38:05.635Z,18.95
2023-04-20T19:40:32.825Z,19.13
2023-04-20T19:42:59.947Z,18.33
2023-04-20T19:45:27.245Z,17.98
2023-04-20T19:47:54.450Z,17.55
2023-04-20T19:50:21.667Z,18.25
2023-04-20T19:52:48.821Z,18.83
2023-04-20T19:55:15.979Z,19.65
2023-04-20T19:57:43.111Z,17.92
2023-04-20T20:00:11.132Z,18.77
2023-04-20T20:02:42.405Z,18.90
2023-04-20T20:05:10.238Z,18.45
2023-04-20T20:07:37.443Z,18.48
2023-04-20T20:10:05.099Z,17.48
2023-04-20T20:12:32.196Z,16.60
2023-04-20T20:14:59.627Z,16.15
2023-04-20T20:17:27.002Z,16.00
2023-04-20T20:19:55.731Z,16.55
2023-04-20T20:22:23.203Z,16.13
2023-04-20T20:24:54.068Z,15.57
2023-04-20T20:27:21.586Z,15.93
2023-04-20T20:29:49.014Z,16.00
2023-04-20T20:32:16.149Z,15.15
2023-04-20T20:34:43.243Z,15.48
2023-04-20T20:37:10.562Z,16.27
2023-04-20T20:39:37.981Z,16.58
2023-04-20T20:42:06.435Z,15.45
2023-04-20T20:44:38.924Z,15.77
2023-04-20T20:47:06.602Z,17.13
2023-04-20T20:49:33.974Z,15.63
2023-04-20T20:52:02.302Z,16.23
2023-04-20T20:54:29.482Z,16.63
2023-04-20T20:56:57.551Z,17.40
2023-04-20T20:59:24.729Z,17.13
2023-04-20T21:01:51.862Z,16.98
2023-04-20T21:04:19.156Z,17.98
2023-04-20T21:06:46.303Z,17.23
2023-04-20T21:09:15.337Z,17.27
2023-04-20T21:11:42.492Z,15.85
2023-04-20T21:14:09.599Z,16.92
2023-04-20T21:16:36.836Z,17.38
2023-04-20T21:19:03.972Z,16.77
2023-04-20T21:21:32.749Z,16.42
2023-04-20T21:23:59.917Z,15.95
2023-04-20T21:26:27.141Z,15.82
2023-04-20T21:28:54.327Z,16.67
2023-04-20T21:31:21.429Z,15.93
2023-04-20T21:33:48.575Z,15.95
2023-04-20T21:36:15.761Z,16.20
2023-04-20T21:38:42.945Z,15.77
2023-04-20T21:41:10.169Z,16.38
2023-04-20T21:43:37.271Z,15.13
2023-04-20T21:46:04.507Z,16.63
2023-04-20T21:48:31.606Z,16.38
2023-04-20T21:50:58.709Z,18.15
2023-04-20T21:53:25.976Z,17.00
2023-04-20T21:55:53.045Z,16.25
2023-04-20T21:58:20.149Z,16.42
2023-04-20T22:00:47.569Z,16.25
2023-04-20T22:03:14.829Z,16.45
2023-04-20T22:05:42.036Z,15.45
2023-04-20T22:08:09.252Z,15.02
2023-04-20T22:10:36.441Z,16.48
2023-04-20T22:13:03.581Z,16.05
2023-04-20T22:15:30.773Z,15.85
2023-04-20T22:18:00.105Z,16.05
2023-04-20T22:20:27.300Z,14.32
2023-04-20T22:22:54.376Z,15.98
2023-04-20T22:25:21.522Z,13.65
2023-04-20T22:27:48.624Z,13.70
2023-04-20T22:30:15.925Z,14.35
2023-04-20T22:32:43.084Z,14.45
2023-04-20T22:35:10.249Z,14.30
2023-04-20T22:37:37.380Z,14.00
2023-04-20T22:40:08.604Z,15.25
2023-04-20T22:42:38.566Z,14.40
2023-04-20T22:45:06.303Z,14.05
2023-04-20T22:47:33.488Z,14.25
2023-04-20T22:50:01.664Z,13.18
2023-04-20T22:52:28.870Z,14.90
2023-04-20T22:54:56.041Z,15.38
2023-04-20T22:57:23.139Z,15.43
2023-04-20T22:59:50.262Z,13.82
2023-04-20T23:02:17.449Z,15.02
2023-04-20T23:04:44.593Z,14.77
2023-04-20T23:07:11.699Z,14.35
2023-04-20T23:09:41.245Z,15.45
2023-04-20T23:12:11.681Z,14.48
2023-04-20T23:14:42.266Z,15.43
2023-04-20T23:17:09.526Z,15.02
2023-04-20T23:19:38.416Z,15.77
2023-04-20T23:22:08.695Z,15.98
2023-04-20T23:24:36.118Z,15.00
2023-04-20T23:27:03.523Z,15.63
2023-04-20T23:29:30.698Z,17.40
2023-04-20T23:31:57.865Z,15.65
2023-04-20T23:34:25.181Z,16.15
2023-04-20T23:36:53.855Z,15.02
2023-04-20T23:39:21.364Z,14.65
2023-04-20T23:41:48.679Z,14.88
2023-04-20T23:44:15.893Z,15.50
2023-04-20T23:46:43.063Z,15.77
2023-04-20T23:49:10.149Z,15.05
2023-04-20T23:51:37.239Z,16.35
2023-04-20T23:54:04.376Z,16.05
2023-04-20T23:56:31.577Z,15.30
2023-04-20T23:58:59.105Z,16.23
